Time;durP1;ratioP1;P1;durP2;ratioP2;P2;SDS_P1;SDS_P2;PMS_P1;PMS_P2;Temp;Humidity;BMP_temperature;BMP_pressure;BME280_temperature;BME280_humidity;BME280_pressure;Samples;Min_cycle;Max_cycle;Signal;HPM_P1;HPM_P2
2022/09/07 03:50:55;;;;;;;7.60;5.30;;;18.40;99.90;;;;;;6088516;23;20415;-74
2022/09/07 03:53:22;;;;;;;8.80;5.30;;;18.50;99.90;;;;;;4964993;28;20579;-72
2022/09/07 03:55:56;;;;;;;9.27;5.63;;;18.50;99.90;;;;;;4965374;28;20456;-72
2022/09/07 03:58:24;;;;;;;8.20;5.07;;;18.50;99.90;;;;;;4966411;28;21049;-71
2022/09/07 04:00:51;;;;;;;7.33;5.70;;;18.50;99.90;;;;;;4966192;28;20496;-71
2022/09/07 04:03:17;;;;;;;13.20;5.90;;;18.50;99.90;;;;;;4966468;28;20457;-74
2022/09/07 04:05:46;;;;;;;10.63;5.70;;;18.60;99.90;;;;;;4965771;28;20460;-73
2022/09/07 04:08:13;;;;;;;7.80;5.50;;;18.50;99.90;;;;;;4966937;28;20464;-74
2022/09/07 04:10:40;;;;;;;8.20;5.80;;;18.60;99.90;;;;;;4967958;28;20464;-72
2022/09/07 04:13:08;;;;;;;12.33;5.20;;;18.50;99.90;;;;;;4969901;28;20496;-71
2022/09/07 04:15:35;;;;;;;8.30;6.27;;;18.50;99.90;;;;;;4969332;28;20464;-65
2022/09/07 04:18:03;;;;;;;8.30;6.03;;;18.50;99.90;;;;;;4971286;28;20996;-75
2022/09/07 04:20:30;;;;;;;6.47;5.60;;;18.40;99.90;;;;;;4970470;28;20492;-76
2022/09/07 04:22:58;;;;;;;8.60;6.30;;;18.40;99.90;;;;;;4971367;28;20512;-75
2022/09/07 04:25:25;;;;;;;6.97;5.60;;;18.40;99.90;;;;;;4971138;28;20503;-75
2022/09/07 04:27:52;;;;;;;6.33;5.57;;;18.40;99.90;;;;;;4972069;28;20499;-76
2022/09/07 04:30:19;;;;;;;9.00;5.87;;;18.40;99.90;;;;;;4971688;28;20543;-76
2022/09/07 04:32:46;;;;;;;8.60;5.90;;;18.40;99.90;;;;;;4971977;28;20564;-78
2022/09/07 04:35:13;;;;;;;6.53;5.90;;;18.40;99.90;;;;;;4971000;28;20476;-79
2022/09/07 04:37:40;;;;;;;7.10;5.53;;;18.30;99.90;;;;;;4971628;28;20466;-76
2022/09/07 04:40:09;;;;;;;6.97;5.93;;;18.30;99.90;;;;;;4971782;28;20496;-80
2022/09/07 04:42:36;;;;;;;6.93;5.80;;;18.20;99.90;;;;;;4971556;28;21105;-82
2022/09/07 04:45:04;;;;;;;8.33;4.97;;;18.20;99.90;;;;;;4971125;28;20457;-75
2022/09/07 04:47:31;;;;;;;11.90;5.20;;;18.20;99.90;;;;;;4971284;28;20468;-75
2022/09/07 04:49:58;;;;;;;7.53;5.27;;;18.20;99.90;;;;;;4971859;28;20486;-78
2022/09/07 04:52:25;;;;;;;8.80;5.40;;;18.20;99.90;;;;;;4970361;28;20493;-76
2022/09/07 04:54:54;;;;;;;7.20;5.33;;;18.30;99.90;;;;;;4971075;28;20497;-76
2022/09/07 04:57:24;;;;;;;11.37;5.90;;;18.30;99.90;;;;;;4970635;28;20834;-75
2022/09/07 04:59:51;;;;;;;7.43;5.60;;;18.20;99.90;;;;;;4971020;28;20972;-76
2022/09/07 05:02:18;;;;;;;6.37;5.20;;;18.20;99.90;;;;;;4970829;28;21000;-79
2022/09/07 05:04:45;;;;;;;5.50;4.27;;;18.20;99.90;;;;;;4970572;28;20456;-77
2022/09/07 05:07:12;;;;;;;9.77;4.53;;;18.20;99.90;;;;;;4970987;28;20552;-75
2022/09/07 05:09:39;;;;;;;6.87;5.20;;;18.20;99.90;;;;;;4971053;28;20540;-76
2022/09/07 05:12:06;;;;;;;10.13;4.90;;;18.20;99.90;;;;;;4970632;28;21008;-76
2022/09/07 05:14:34;;;;;;;8.20;5.30;;;18.20;99.90;;;;;;4970086;28;20496;-75
2022/09/07 05:17:02;;;;;;;6.43;4.97;;;18.20;99.90;;;;;;4971016;28;20460;-75
2022/09/07 05:19:29;;;;;;;8.00;6.17;;;18.20;99.90;;;;;;4970609;28;20473;-75
2022/09/07 05:21:57;;;;;;;10.03;5.60;;;18.20;99.90;;;;;;4969068;28;20480;-75
2022/09/07 05:24:25;;;;;;;7.20;5.10;;;18.20;99.90;;;;;;4970166;28;20439;-83
2022/09/07 05:26:52;;;;;;;7.67;6.10;;;18.20;99.90;;;;;;4970784;28;20731;-76
2022/09/07 05:29:19;;;;;;;7.13;5.90;;;18.20;99.90;;;;;;4970853;28;20456;-75
2022/09/07 05:31:48;;;;;;;7.30;4.87;;;18.20;99.90;;;;;;4970886;28;20476;-77
2022/09/07 05:34:15;;;;;;;6.77;5.27;;;18.10;99.90;;;;;;4969520;28;21007;-78
2022/09/07 05:36:42;;;;;;;7.23;4.73;;;18.10;99.90;;;;;;4970238;28;20461;-80
2022/09/07 05:39:10;;;;;;;9.33;4.97;;;18.10;99.90;;;;;;4970503;28;20473;-77
2022/09/07 05:41:37;;;;;;;7.40;4.87;;;18.10;99.90;;;;;;4970157;28;20491;-75
2022/09/07 05:44:05;;;;;;;5.93;4.90;;;18.10;99.90;;;;;;4969835;28;20463;-78
2022/09/07 05:46:32;;;;;;;6.20;4.73;;;18.10;99.90;;;;;;4970084;28;20955;-81
2022/09/07 05:49:02;;;;;;;7.20;5.17;;;18.10;99.90;;;;;;4970278;28;20884;-76
2022/09/07 05:51:28;;;;;;;7.90;4.70;;;18.10;99.90;;;;;;4969925;28;20859;-74
2022/09/07 05:53:56;;;;;;;7.60;4.97;;;18.10;99.90;;;;;;4970305;28;20502;-74
2022/09/07 05:56:23;;;;;;;8.60;4.47;;;18.10;99.90;;;;;;4970044;28;20465;-77
2022/09/07 05:58:49;;;;;;;8.10;5.70;;;18.00;99.90;;;;;;4970161;28;20468;-75
2022/09/07 06:01:17;;;;;;;8.00;5.53;;;18.10;99.90;;;;;;4970120;28;20481;-78
2022/09/07 06:03:44;;;;;;;8.27;5.40;;;18.10;99.90;;;;;;4970063;28;20489;-74
2022/09/07 06:06:14;;;;;;;7.67;4.70;;;18.10;99.90;;;;;;4969379;28;20543;-74
2022/09/07 06:08:45;;;;;;;7.00;5.13;;;18.10;99.90;;;;;;4970169;28;20464;-77
2022/09/07 06:11:15;;;;;;;7.50;5.73;;;18.10;99.90;;;;;;4969860;28;20571;-75
2022/09/07 06:13:42;;;;;;;5.30;4.70;;;18.20;99.90;;;;;;4969692;28;20507;-74
2022/09/07 06:16:11;;;;;;;9.77;5.20;;;18.20;99.90;;;;;;4969206;28;20531;-78
2022/09/07 06:18:40;;;;;;;5.37;4.83;;;18.20;99.90;;;;;;4969620;28;21032;-78
2022/09/07 06:21:08;;;;;;;6.23;4.60;;;18.30;99.90;;;;;;4968461;28;20492;-75
2022/09/07 06:23:38;;;;;;;7.90;4.93;;;18.30;99.90;;;;;;4969613;28;20539;-78
2022/09/07 06:26:06;;;;;;;9.87;5.00;;;18.30;99.90;;;;;;4968831;28;20460;-84
2022/09/07 06:28:34;;;;;;;7.87;6.20;;;18.40;99.90;;;;;;4969417;28;20543;-75
2022/09/07 06:31:02;;;;;;;10.90;6.03;;;18.40;99.90;;;;;;4969112;28;20472;-75
2022/09/07 06:33:29;;;;;;;7.77;6.07;;;18.40;99.90;;;;;;4969387;28;20455;-77
2022/09/07 06:35:57;;;;;;;7.97;5.97;;;18.40;99.90;;;;;;4968951;28;20504;-79
2022/09/07 06:38:24;;;;;;;9.23;6.73;;;18.50;99.90;;;;;;4969598;28;20464;-78
2022/09/07 06:40:52;;;;;;;7.63;5.73;;;18.50;99.90;;;;;;4969459;28;20469;-77
2022/09/07 06:43:19;;;;;;;7.90;5.90;;;18.50;99.90;;;;;;4969629;28;20492;-75
2022/09/07 06:45:52;;;;;;;10.07;6.03;;;18.50;99.90;;;;;;4968732;28;20547;-76
2022/09/07 06:48:19;;;;;;;9.23;6.30;;;18.60;99.90;;;;;;4969270;28;20925;-75
2022/09/07 06:50:56;;;;;;;9.80;6.17;;;18.60;99.90;;;;;;4969180;28;20838;-78
2022/09/07 06:53:23;;;;;;;6.97;5.70;;;18.70;99.90;;;;;;4969327;28;20452;-82
2022/09/07 06:55:50;;;;;;;10.37;6.50;;;18.80;99.90;;;;;;4968471;28;20464;-79
2022/09/07 06:58:18;;;;;;;11.10;5.07;;;18.80;99.90;;;;;;4969519;28;20461;-76
2022/09/07 07:00:45;;;;;;;7.80;4.57;;;18.90;99.90;;;;;;4969118;28;20460;-78
2022/09/07 07:03:12;;;;;;;7.17;5.13;;;19.00;99.90;;;;;;4968903;28;20461;-76
2022/09/07 07:05:39;;;;;;;5.57;4.77;;;19.10;99.90;;;;;;4968615;28;20486;-76
2022/09/07 07:08:06;;;;;;;6.03;4.13;;;19.20;99.90;;;;;;4969162;28;20457;-75
2022/09/07 07:10:37;;;;;;;7.47;4.73;;;19.30;99.90;;;;;;4969208;28;20819;-78
2022/09/07 07:13:05;;;;;;;7.53;3.97;;;19.40;99.90;;;;;;4968990;28;20782;-76
2022/09/07 07:15:33;;;;;;;9.40;4.40;;;19.50;99.90;;;;;;4968467;28;20500;-76
2022/09/07 07:18:00;;;;;;;5.83;4.40;;;19.60;99.90;;;;;;4968972;28;20460;-81
2022/09/07 07:20:27;;;;;;;6.90;3.63;;;19.70;99.90;;;;;;4968774;28;20465;-82
2022/09/07 07:22:54;;;;;;;12.30;4.00;;;19.80;99.90;;;;;;4968755;28;20571;-76
2022/09/07 07:25:22;;;;;;;10.30;3.60;;;19.80;99.90;;;;;;4968331;28;20452;-79
2022/09/07 07:27:49;;;;;;;6.53;3.73;;;19.90;99.90;;;;;;4968904;28;20969;-83
2022/09/07 07:30:18;;;;;;;6.20;4.00;;;20.10;99.90;;;;;;4968871;28;20964;-77
2022/09/07 07:32:47;;;;;;;8.57;3.77;;;20.20;99.90;;;;;;4968888;28;20560;-76
2022/09/07 07:35:14;;;;;;;7.90;3.40;;;20.20;99.90;;;;;;4968414;28;20587;-78
2022/09/07 07:37:41;;;;;;;6.50;4.00;;;20.30;99.90;;;;;;4968856;28;20467;-74
2022/09/07 07:40:10;;;;;;;9.10;4.60;;;20.50;99.90;;;;;;4968409;28;20475;-77
2022/09/07 07:42:38;;;;;;;4.23;3.20;;;20.60;99.90;;;;;;4970013;28;20535;-82
2022/09/07 07:45:07;;;;;;;6.20;3.57;;;20.70;99.90;;;;;;4971831;28;20948;-75
2022/09/07 07:47:34;;;;;;;5.60;3.77;;;20.70;99.90;;;;;;4972732;28;20464;-78
2022/09/07 07:50:03;;;;;;;8.50;3.67;;;20.80;99.90;;;;;;4972300;28;20460;-74
2022/09/07 07:52:34;;;;;;;13.03;4.20;;;20.80;99.90;;;;;;4972204;28;20499;-75
2022/09/07 07:55:01;;;;;;;5.63;3.13;;;21.00;99.90;;;;;;4971455;28;20532;-75
2022/09/07 07:57:28;;;;;;;5.87;3.50;;;21.00;99.90;;;;;;4972451;28;20470;-75
2022/09/07 07:59:56;;;;;;;6.60;3.20;;;21.20;99.90;;;;;;4971955;28;20983;-81
2022/09/07 08:02:23;;;;;;;8.50;3.57;;;21.30;99.90;;;;;;4971979;28;20515;-80
2022/09/07 08:04:50;;;;;;;9.10;3.17;;;21.30;99.90;;;;;;4971501;28;20488;-75
2022/09/07 08:07:19;;;;;;;6.50;3.80;;;21.40;99.90;;;;;;4972147;28;20547;-78
2022/09/07 08:09:48;;;;;;;8.00;2.93;;;21.60;99.90;;;;;;4972181;28;20456;-74
2022/09/07 08:12:16;;;;;;;7.10;3.87;;;21.80;99.90;;;;;;4971964;28;20491;-75
2022/09/07 08:14:43;;;;;;;8.60;3.60;;;21.90;99.90;;;;;;4971024;28;20496;-78
2022/09/07 08:17:13;;;;;;;9.53;2.90;;;22.10;99.90;;;;;;4972333;28;20507;-74
2022/09/07 08:19:40;;;;;;;6.70;3.10;;;22.20;99.90;;;;;;4972107;28;20488;-76
2022/09/07 08:22:07;;;;;;;6.57;3.20;;;22.40;99.90;;;;;;4971868;28;20480;-74
2022/09/07 08:24:36;;;;;;;9.50;2.73;;;22.40;99.90;;;;;;4971267;28;20453;-75
2022/09/07 08:27:03;;;;;;;8.00;2.90;;;22.50;99.90;;;;;;4971774;28;20466;-77
2022/09/07 08:29:30;;;;;;;6.53;3.07;;;22.70;99.90;;;;;;4971542;28;20463;-77
2022/09/07 08:31:57;;;;;;;7.03;3.00;;;22.80;99.90;;;;;;4971936;28;20583;-75
2022/09/07 08:34:23;;;;;;;10.07;3.20;;;23.00;99.90;;;;;;4970693;28;20492;-78
2022/09/07 08:36:50;;;;;;;6.10;2.83;;;23.00;99.90;;;;;;4971098;28;20460;-76
2022/09/07 08:39:17;;;;;;;7.37;3.20;;;23.10;99.90;;;;;;4971850;28;20515;-74
2022/09/07 08:42:02;;;;;;;6.43;3.10;;;23.20;99.90;;;;;;4971196;28;20488;-77
2022/09/07 08:44:33;;;;;;;7.20;2.80;;;23.30;99.90;;;;;;4971260;28;20472;-75
2022/09/07 08:47:05;;;;;;;6.63;2.83;;;23.50;99.90;;;;;;4971596;28;20456;-75
2022/09/07 08:49:42;;;;;;;5.90;2.67;;;23.70;99.90;;;;;;4971221;28;20907;-77
2022/09/07 08:52:14;;;;;;;9.00;3.10;;;23.80;99.90;;;;;;4971094;28;20492;-75
2022/09/07 08:54:45;;;;;;;8.03;2.90;;;23.90;99.90;;;;;;4970028;28;20488;-78
2022/09/07 08:57:19;;;;;;;8.40;3.00;;;24.00;99.90;;;;;;4971340;28;20448;-75
2022/09/07 08:59:49;;;;;;;8.23;3.23;;;24.10;99.90;;;;;;4971508;28;20452;-82
2022/09/07 09:02:18;;;;;;;8.20;3.47;;;24.20;99.90;;;;;;4971350;28;20477;-74
2022/09/07 09:04:44;;;;;;;5.07;2.73;;;24.30;99.90;;;;;;4970767;28;20824;-74
2022/09/07 09:07:20;;;;;;;12.60;3.70;;;24.50;99.90;;;;;;4971239;28;20461;-76
2022/09/07 09:10:09;;;;;;;8.47;3.43;;;24.60;99.90;;;;;;4971440;28;20436;-79
2022/09/07 09:12:54;;;;;;;8.93;3.27;;;24.70;99.90;;;;;;4970916;28;20484;-74
2022/09/07 09:15:29;;;;;;;6.60;3.20;;;24.70;99.90;;;;;;4970335;28;20473;-77
2022/09/07 09:18:02;;;;;;;12.67;3.73;;;24.80;99.90;;;;;;4971299;28;20791;-76
2022/09/07 09:20:34;;;;;;;8.60;3.17;;;24.90;99.90;;;;;;4970762;28;20451;-75
2022/09/07 09:23:09;;;;;;;10.03;3.17;;;25.50;99.90;;;;;;4970778;28;20531;-77
2022/09/07 09:25:37;;;;;;;7.43;3.40;;;25.70;99.90;;;;;;4970289;28;20444;-77
2022/09/07 09:28:05;;;;;;;13.43;3.27;;;25.60;99.90;;;;;;4971200;28;20827;-75
2022/09/07 09:30:32;;;;;;;13.17;3.03;;;25.70;99.90;;;;;;4971032;28;20456;-75
2022/09/07 09:33:18;;;;;;;9.70;3.03;;;25.70;99.90;;;;;;4970872;28;20572;-76
2022/09/07 09:35:48;;;;;;;16.57;3.67;;;25.70;99.90;;;;;;4970205;28;20480;-79
2022/09/07 09:38:34;;;;;;;4.77;3.13;;;25.80;99.90;;;;;;4970774;28;20448;-83
2022/09/07 09:41:05;;;;;;;4.83;2.50;;;25.90;99.90;;;;;;4971034;28;20472;-75
2022/09/07 09:43:41;;;;;;;7.57;2.80;;;26.00;99.90;;;;;;4971065;28;20447;-75
2022/09/07 09:46:19;;;;;;;11.27;3.37;;;26.10;99.90;;;;;;4970329;28;20807;-75
2022/09/07 09:48:53;;;;;;;7.10;2.37;;;26.20;99.90;;;;;;4970817;28;20449;-75
2022/09/07 09:51:20;;;;;;;9.80;3.17;;;26.40;99.90;;;;;;4970445;28;20480;-76
2022/09/07 09:53:57;;;;;;;11.20;3.00;;;26.50;99.90;;;;;;4970607;28;20453;-75
2022/09/07 09:56:40;;;;;;;7.57;3.00;;;26.40;99.90;;;;;;4970088;28;21078;-75
2022/09/07 09:59:30;;;;;;;8.50;2.80;;;26.50;99.90;;;;;;4968658;28;20472;-77
2022/09/07 10:01:58;;;;;;;7.80;2.83;;;26.60;99.90;;;;;;4965975;28;20489;-75
2022/09/07 10:04:32;;;;;;;9.53;2.40;;;26.70;99.90;;;;;;4969304;28;20457;-84
2022/09/07 10:07:08;;;;;;;6.37;2.80;;;26.90;99.90;;;;;;4969398;28;20484;-77
2022/09/07 10:09:37;;;;;;;8.53;2.87;;;27.10;99.90;;;;;;4970399;28;20928;-79
2022/09/07 10:12:06;;;;;;;8.23;2.87;;;27.10;99.90;;;;;;4970393;28;20531;-82
2022/09/07 10:14:41;;;;;;;10.83;2.70;;;27.10;99.90;;;;;;4969565;28;20464;-80
2022/09/07 10:17:13;;;;;;;8.03;2.97;;;27.00;99.90;;;;;;4970657;28;20825;-75
2022/09/07 10:19:42;;;;;;;5.73;2.53;;;27.20;99.90;;;;;;4969984;28;20471;-75
2022/09/07 10:22:31;;;;;;;12.63;2.93;;;27.40;99.90;;;;;;4969965;28;20476;-76
2022/09/07 10:24:59;;;;;;;8.00;2.63;;;27.50;99.90;;;;;;4969648;28;20437;-75
2022/09/07 10:27:31;;;;;;;4.47;2.43;;;27.50;99.90;;;;;;4969772;28;20491;-75
2022/09/07 10:30:00;;;;;;;6.50;2.83;;;27.50;99.90;;;;;;4969960;28;20453;-82
2022/09/07 10:32:40;;;;;;;6.97;2.53;;;27.60;99.90;;;;;;4969787;28;20485;-75
2022/09/07 10:35:16;;;;;;;8.33;2.17;;;27.60;99.90;;;;;;4969192;28;20484;-84
2022/09/07 10:37:52;;;;;;;7.50;2.77;;;27.60;99.90;;;;;;4970023;28;20440;-75
2022/09/07 10:40:28;;;;;;;6.77;2.60;;;27.60;99.90;;;;;;4969392;28;20448;-75
2022/09/07 10:43:05;;;;;;;7.60;2.23;;;27.50;99.90;;;;;;4969810;28;20480;-75
2022/09/07 10:45:41;;;;;;;6.77;2.43;;;27.60;99.90;;;;;;4969014;28;20444;-75
2022/09/07 10:48:15;;;;;;;5.40;1.97;;;27.80;99.90;;;;;;4969574;28;20445;-76
2022/09/07 10:50:48;;;;;;;5.93;3.03;;;27.90;99.90;;;;;;4968601;28;20459;-82
2022/09/07 10:53:29;;;;;;;14.97;2.10;;;28.00;99.90;;;;;;4969803;28;20456;-79
2022/09/07 10:56:03;;;;;;;4.60;2.37;;;28.10;99.90;;;;;;4968979;28;20495;-75
2022/09/07 10:58:37;;;;;;;3.83;2.10;;;28.00;99.90;;;;;;4969225;28;20944;-75
2022/09/07 11:01:15;;;;;;;5.67;2.40;;;27.80;99.90;;;;;;4969305;28;20477;-75
2022/09/07 11:04:00;;;;;;;5.97;2.03;;;27.60;99.90;;;;;;4969312;28;20445;-77
2022/09/07 11:06:32;;;;;;;5.30;1.73;;;27.50;99.90;;;;;;4969059;28;20460;-76
2022/09/07 11:09:31;;;;;;;4.33;1.90;;;27.50;99.90;;;;;;4969533;28;20448;-78
2022/09/07 11:12:04;;;;;;;4.57;2.03;;;27.50;99.90;;;;;;4968702;28;20476;-76
2022/09/07 11:14:35;;;;;;;4.50;2.20;;;27.70;99.90;;;;;;4968796;28;20444;-75
2022/09/07 11:17:12;;;;;;;4.00;2.30;;;27.70;99.90;;;;;;4969725;28;20499;-79
2022/09/07 11:19:44;;;;;;;7.10;2.23;;;27.70;99.90;;;;;;4972969;28;20894;-75
2022/09/07 11:22:22;;;;;;;10.50;2.67;;;27.70;99.90;;;;;;4973497;28;20484;-75
2022/09/07 11:24:53;;;;;;;4.33;2.00;;;27.80;99.90;;;;;;4972516;28;21039;-76
2022/09/07 11:27:26;;;;;;;6.30;2.13;;;27.90;99.90;;;;;;4973250;28;20444;-75
2022/09/07 11:29:58;;;;;;;6.13;2.03;;;28.00;99.90;;;;;;4973009;28;20451;-75
2022/09/07 11:32:31;;;;;;;6.53;2.30;;;28.20;99.90;;;;;;4972891;28;21023;-75
2022/09/07 11:35:03;;;;;;;5.23;2.10;;;28.50;99.90;;;;;;4972418;28;20444;-82
2022/09/07 11:37:37;;;;;;;9.87;2.40;;;29.20;99.90;;;;;;4972761;28;20983;-80
2022/09/07 11:40:12;;;;;;;7.00;1.80;;;29.10;99.90;;;;;;4973307;28;20441;-75
2022/09/07 11:42:46;;;;;;;3.53;2.10;;;29.10;99.90;;;;;;4973062;28;20521;-75
2022/09/07 11:45:16;;;;;;;6.70;2.60;;;29.30;99.90;;;;;;4972928;28;20448;-76
2022/09/07 11:47:48;;;;;;;7.40;1.87;;;29.40;99.90;;;;;;4973652;28;20440;-74
2022/09/07 11:50:17;;;;;;;7.97;2.20;;;29.30;99.90;;;;;;4973901;28;20932;-77
2022/09/07 11:52:49;;;;;;;3.83;1.90;;;29.40;99.90;;;;;;4973943;28;20484;-76
2022/09/07 11:55:24;;;;;;;3.60;1.80;;;29.40;99.90;;;;;;4973189;28;20495;-76
2022/09/07 11:58:07;;;;;;;3.17;1.73;;;29.70;99.90;;;;;;4972798;28;20444;-80
2022/09/07 12:00:45;;;;;;;6.67;1.90;;;29.80;99.90;;;;;;4972580;28;20451;-73
2022/09/07 12:03:31;;;;;;;7.23;2.23;;;29.60;99.90;;;;;;4972836;28;20450;-76
2022/09/07 12:06:27;;;;;;;3.50;1.93;;;29.50;99.90;;;;;;4972265;28;20456;-76
2022/09/07 12:09:08;;;;;;;5.07;2.17;;;29.40;99.90;;;;;;4947333;28;20460;-75
2022/09/07 12:12:04;;;;;;;4.23;2.10;;;29.30;99.90;;;;;;4972778;28;20981;-76
2022/09/07 12:14:40;;;;;;;3.47;2.20;;;29.30;99.90;;;;;;4972978;28;20437;-75
2022/09/07 12:17:29;;;;;;;7.90;2.27;;;29.20;99.90;;;;;;4972963;28;20483;-77
2022/09/07 12:20:16;;;;;;;4.67;2.00;;;29.00;99.90;;;;;;4972914;28;20445;-76
2022/09/07 12:23:01;;;;;;;4.40;2.03;;;29.00;99.90;;;;;;4971839;28;20485;-74
2022/09/07 12:25:29;;;;;;;3.47;2.10;;;29.10;99.90;;;;;;4971419;28;20473;-79
2022/09/07 12:27:57;;;;;;;5.97;2.60;;;29.20;99.90;;;;;;4971814;28;20556;-74
2022/09/07 12:30:54;;;;;;;3.63;1.67;;;29.40;99.90;;;;;;4971094;28;20471;-80
2022/09/07 12:33:26;;;;;;;7.83;2.90;;;29.60;99.90;;;;;;4971549;28;20441;-74
2022/09/07 12:35:57;;;;;;;6.40;2.10;;;29.70;99.90;;;;;;4971247;28;20495;-73
2022/09/07 12:39:04;;;;;;;12.07;2.03;;;29.80;99.90;;;;;;4971791;28;20484;-83
2022/09/07 12:41:43;;;;;;;4.50;1.90;;;29.80;99.90;;;;;;4971282;28;20948;-78
2022/09/07 12:44:19;;;;;;;4.63;1.60;;;29.90;99.90;;;;;;4970479;28;20448;-79
2022/09/07 12:46:50;;;;;;;3.97;2.10;;;29.90;99.90;;;;;;4971700;28;20433;-74
2022/09/07 12:49:54;;;;;;;5.97;2.10;;;29.90;99.90;;;;;;4971763;28;20471;-74
2022/09/07 12:52:53;;;;;;;6.47;2.03;;;29.90;99.90;;;;;;4967534;28;20491;-76
2022/09/07 12:55:34;;;;;;;3.37;1.77;;;29.80;99.90;;;;;;4950252;28;20461;-74
2022/09/07 12:58:16;;;;;;;4.10;1.93;;;29.90;99.90;;;;;;4971462;28;20964;-80
2022/09/07 13:01:04;;;;;;;4.20;1.80;;;29.70;99.90;;;;;;4971314;28;20445;-74
2022/09/07 13:03:51;;;;;;;5.43;2.00;;;29.60;99.90;;;;;;4971178;28;20528;-76
2022/09/07 13:06:30;;;;;;;7.23;2.10;;;29.50;99.90;;;;;;4970556;28;20453;-80
2022/09/07 13:09:19;;;;;;;4.50;1.93;;;29.50;99.90;;;;;;4970946;28;20456;-81
2022/09/07 13:11:46;;;;;;;4.90;2.00;;;29.50;99.90;;;;;;4970866;28;20524;-75
2022/09/07 13:14:20;;;;;;;3.97;1.73;;;29.60;99.90;;;;;;4970644;28;20457;-74
2022/09/07 13:16:49;;;;;;;4.57;2.00;;;29.60;99.90;;;;;;4970719;28;20492;-74
2022/09/07 13:19:36;;;;;;;4.93;2.10;;;29.50;99.90;;;;;;4971060;28;20500;-77
2022/09/07 13:22:23;;;;;;;5.40;1.93;;;29.30;99.90;;;;;;4970415;28;20484;-74
2022/09/07 13:24:55;;;;;;;5.10;2.17;;;29.30;99.90;;;;;;4969730;28;20461;-75
2022/09/07 13:27:43;;;;;;;3.83;1.80;;;29.30;99.90;;;;;;4970701;28;20445;-76
2022/09/07 13:30:37;;;;;;;9.40;2.50;;;29.30;99.90;;;;;;4970367;28;20457;-76
2022/09/07 13:33:41;;;;;;;5.40;2.07;;;29.30;99.90;;;;;;4970473;28;20933;-77
2022/09/07 13:36:20;;;;;;;6.80;1.80;;;29.40;99.90;;;;;;4969392;28;20504;-76
2022/09/07 13:38:48;;;;;;;5.13;2.03;;;29.40;99.90;;;;;;4970529;28;20459;-74
2022/09/07 13:41:21;;;;;;;5.00;1.60;;;29.50;99.90;;;;;;4969238;28;20531;-74
2022/09/07 13:43:49;;;;;;;8.77;1.97;;;29.60;99.90;;;;;;4970831;28;20455;-74
2022/09/07 13:46:44;;;;;;;4.10;1.90;;;29.70;99.90;;;;;;4969613;28;20461;-77
2022/09/07 13:49:45;;;;;;;6.80;2.00;;;29.70;99.90;;;;;;4970773;28;20465;-77
2022/09/07 13:52:16;;;;;;;4.00;1.77;;;29.80;99.90;;;;;;4960311;28;21160;-76
2022/09/07 13:54:57;;;;;;;6.10;2.07;;;30.00;99.90;;;;;;4969510;28;20938;-77
2022/09/07 13:57:30;;;;;;;3.70;2.07;;;30.00;99.90;;;;;;4970054;28;20480;-78
2022/09/07 13:59:58;;;;;;;5.70;1.87;;;30.00;99.90;;;;;;4970304;28;20467;-75
2022/09/07 14:02:28;;;;;;;3.77;2.03;;;30.00;99.90;;;;;;4970237;28;20491;-75
2022/09/07 14:04:57;;;;;;;3.20;1.70;;;30.00;99.90;;;;;;4969669;28;20437;-74
2022/09/07 14:07:26;;;;;;;4.13;2.00;;;29.90;99.90;;;;;;4970037;28;20461;-74
2022/09/07 14:10:17;;;;;;;4.63;1.90;;;29.80;99.90;;;;;;4969881;28;20519;-79
2022/09/07 14:12:47;;;;;;;8.07;1.80;;;29.80;99.90;;;;;;4969624;28;20566;-74
2022/09/07 14:15:23;;;;;;;2.37;1.50;;;29.90;99.90;;;;;;4969573;28;20515;-75
2022/09/07 14:18:01;;;;;;;2.40;1.77;;;30.00;99.90;;;;;;4969618;28;20495;-82
2022/09/07 14:20:29;;;;;;;7.63;1.83;;;30.10;99.90;;;;;;4970038;28;20924;-75
2022/09/07 14:22:56;;;;;;;3.77;1.63;;;30.40;99.90;;;;;;4969971;28;20895;-75
2022/09/07 14:25:24;;;;;;;3.80;1.50;;;30.50;99.90;;;;;;4968962;28;20467;-75
2022/09/07 14:27:53;;;;;;;3.73;1.60;;;30.60;99.90;;;;;;4969406;28;20468;-75
2022/09/07 14:30:26;;;;;;;3.80;1.20;;;30.80;99.90;;;;;;4969532;28;20456;-75
2022/09/07 14:32:55;;;;;;;5.00;1.90;;;30.80;99.90;;;;;;4969777;28;20567;-77
2022/09/07 14:35:25;;;;;;;3.90;1.67;;;30.70;99.90;;;;;;4969374;28;20460;-77
2022/09/07 14:37:53;;;;;;;4.87;1.57;;;30.60;99.90;;;;;;4969303;28;21239;-76
2022/09/07 14:40:21;;;;;;;6.03;1.57;;;30.50;99.90;;;;;;4969740;28;20466;-75
2022/09/07 14:42:49;;;;;;;3.53;1.80;;;30.40;99.90;;;;;;4969176;28;21005;-78
2022/09/07 14:45:19;;;;;;;4.83;2.30;;;30.40;99.90;;;;;;4968679;28;20467;-77
2022/09/07 14:47:48;;;;;;;5.70;2.30;;;30.40;99.90;;;;;;4969632;28;20468;-78
2022/09/07 14:50:18;;;;;;;3.67;1.87;;;30.40;99.90;;;;;;4969409;28;20471;-78
2022/09/07 14:52:49;;;;;;;2.97;1.60;;;30.60;99.90;;;;;;4968706;28;20484;-77
2022/09/07 14:55:28;;;;;;;6.83;1.90;;;30.60;99.90;;;;;;4969158;28;20504;-76
2022/09/07 14:58:21;;;;;;;6.10;1.60;;;30.60;99.90;;;;;;4969386;28;20476;-76
2022/09/07 15:00:50;;;;;;;5.33;1.60;;;30.60;99.90;;;;;;4969226;28;20441;-75
2022/09/07 15:03:31;;;;;;;5.03;1.83;;;30.80;99.90;;;;;;4969193;28;20827;-78
2022/09/07 15:05:59;;;;;;;4.87;1.93;;;30.70;99.90;;;;;;4968727;28;20462;-78
2022/09/07 15:08:38;;;;;;;7.17;2.00;;;30.60;99.90;;;;;;4969015;28;20448;-78
2022/09/07 15:11:07;;;;;;;4.43;1.80;;;30.40;99.90;;;;;;4969552;28;20483;-77
2022/09/07 15:13:35;;;;;;;6.77;2.03;;;30.30;99.90;;;;;;4968987;28;20829;-76
2022/09/07 15:16:06;;;;;;;7.10;1.80;;;30.20;99.90;;;;;;4968866;28;20831;-76
2022/09/07 15:19:22;;;;;;;4.47;1.83;;;30.10;99.90;;;;;;4969474;28;20475;-76
2022/09/07 15:21:49;;;;;;;4.30;2.00;;;30.00;99.90;;;;;;4967946;28;20841;-76
2022/09/07 15:24:16;;;;;;;4.23;1.90;;;30.00;99.90;;;;;;4968569;28;20437;-76
2022/09/07 15:26:44;;;;;;;3.43;1.83;;;30.00;99.90;;;;;;4969118;28;20459;-82
2022/09/07 15:29:12;;;;;;;6.73;2.10;;;30.00;99.90;;;;;;4969036;28;20469;-80
2022/09/07 15:31:41;;;;;;;4.53;1.73;;;29.90;99.90;;;;;;4969082;28;20485;-75
2022/09/07 15:34:11;;;;;;;5.83;1.70;;;29.80;99.90;;;;;;4968389;28;20470;-79
2022/09/07 15:36:39;;;;;;;4.70;1.77;;;29.70;99.90;;;;;;4969141;28;20496;-75
2022/09/07 15:39:06;;;;;;;3.60;1.60;;;29.60;99.90;;;;;;4968990;28;20471;-78
2022/09/07 15:41:33;;;;;;;3.00;1.60;;;29.40;99.90;;;;;;4968670;28;20981;-75
2022/09/07 15:44:00;;;;;;;6.07;1.90;;;29.40;99.90;;;;;;4968658;28;21225;-76
2022/09/07 15:46:27;;;;;;;2.13;1.53;;;29.30;99.90;;;;;;4968917;28;20462;-76
2022/09/07 15:48:56;;;;;;;6.60;1.90;;;29.30;99.90;;;;;;4971447;28;21027;-75
2022/09/07 15:51:24;;;;;;;2.63;1.47;;;29.20;99.90;;;;;;4971825;28;20499;-79
2022/09/07 15:53:51;;;;;;;5.83;1.63;;;29.10;99.90;;;;;;4970861;28;21301;-76
2022/09/07 15:56:18;;;;;;;2.70;1.80;;;29.00;99.90;;;;;;4969920;28;20456;-76
2022/09/07 15:58:45;;;;;;;6.73;1.77;;;28.90;99.90;;;;;;4971347;28;20456;-77
2022/09/07 16:01:16;;;;;;;3.33;1.70;;;28.80;99.90;;;;;;4970563;28;20484;-75
2022/09/07 16:03:43;;;;;;;3.40;1.80;;;28.60;99.90;;;;;;4971652;28;20445;-75
2022/09/07 16:06:11;;;;;;;2.40;1.60;;;28.50;99.90;;;;;;4974972;28;20944;-76
2022/09/07 16:08:38;;;;;;;2.23;1.40;;;28.40;99.90;;;;;;4974626;28;20468;-77
2022/09/07 16:11:16;;;;;;;2.63;1.60;;;28.30;99.90;;;;;;4970674;28;20494;-68
2022/09/07 16:13:43;;;;;;;2.53;1.50;;;28.20;99.90;;;;;;4972322;28;20917;-77
2022/09/07 16:16:10;;;;;;;4.37;2.20;;;28.10;99.90;;;;;;4972186;28;20467;-78
2022/09/07 16:18:37;;;;;;;3.50;1.60;;;28.20;99.90;;;;;;4972484;28;20495;-76
2022/09/07 16:21:06;;;;;;;4.77;2.13;;;28.10;99.90;;;;;;4972852;28;20480;-76
2022/09/07 16:23:35;;;;;;;4.97;1.57;;;28.10;99.90;;;;;;4972630;28;20461;-75
2022/09/07 16:26:05;;;;;;;3.97;1.80;;;28.10;99.90;;;;;;4971799;28;20460;-76
2022/09/07 16:28:56;;;;;;;4.60;1.93;;;28.10;99.90;;;;;;4972849;28;20855;-76
2022/09/07 16:31:30;;;;;;;9.77;1.80;;;28.10;99.90;;;;;;4969471;28;20476;-76
2022/09/07 16:34:02;;;;;;;3.10;1.40;;;28.10;99.90;;;;;;4968932;28;20460;-76
2022/09/07 16:36:31;;;;;;;3.93;1.87;;;28.10;99.90;;;;;;4968874;28;20850;-76
2022/09/07 16:39:01;;;;;;;3.40;1.70;;;28.10;99.90;;;;;;4969536;28;20471;-76
2022/09/07 16:41:30;;;;;;;5.83;1.67;;;28.00;99.90;;;;;;4969287;28;20477;-76
2022/09/07 16:43:57;;;;;;;7.57;2.10;;;28.00;99.90;;;;;;4968721;28;20820;-76
2022/09/07 16:46:25;;;;;;;2.57;1.60;;;28.00;99.90;;;;;;4968806;28;20471;-76
2022/09/07 16:48:53;;;;;;;3.67;1.93;;;28.00;99.90;;;;;;4968522;28;20449;-77
2022/09/07 16:51:21;;;;;;;3.50;1.60;;;27.90;99.90;;;;;;4968923;28;20496;-76
2022/09/07 16:53:49;;;;;;;1.97;1.70;;;27.80;99.90;;;;;;4969296;28;21272;-76
2022/09/07 16:56:19;;;;;;;2.67;1.70;;;27.80;99.90;;;;;;4968684;28;20475;-77
2022/09/07 16:58:47;;;;;;;5.80;2.13;;;27.70;99.90;;;;;;4969407;28;20512;-75
2022/09/07 17:01:16;;;;;;;3.10;1.50;;;27.60;99.90;;;;;;4967537;28;20481;-75